createdAt,value
2017-11-16T00:00:26.626Z,9.66
2017-11-16T00:01:26.628Z,9.66
2017-11-16T00:02:26.323Z,9.67
2017-11-16T00:03:26.581Z,9.64
2017-11-16T00:04:26.284Z,9.71
2017-11-16T00:05:26.268Z,9.68
2017-11-16T00:06:26.523Z,9.6
2017-11-16T00:07:26.780Z,9.64
2017-11-16T00:08:26.501Z,9.67
2017-11-16T00:09:26.471Z,9.66
2017-11-16T00:10:26.724Z,9.7
2017-11-16T00:11:26.713Z,9.64
2017-11-16T00:12:26.153Z,9.6
2017-11-16T00:13:26.402Z,9.58
2017-11-16T00:14:26.669Z,9.7
2017-11-16T00:15:26.099Z,9.56
2017-11-16T00:16:26.628Z,9.64
2017-11-16T00:17:26.336Z,9.53
2017-11-16T00:18:26.587Z,9.58
2017-11-16T00:19:26.310Z,9.61
2017-11-16T00:20:26.014Z,9.57
2017-11-16T00:21:26.539Z,9.57
2017-11-16T00:22:26.517Z,9.57
2017-11-16T00:23:26.235Z,9.53
2017-11-16T00:24:25.945Z,9.52
2017-11-16T00:25:26.481Z,9.58
2017-11-16T00:26:26.461Z,9.58
2017-11-16T00:27:26.439Z,9.53
2017-11-16T00:28:26.419Z,9.52
2017-11-16T00:29:25.865Z,9.6
2017-11-16T00:30:25.851Z,9.57
2017-11-16T00:31:26.096Z,9.46
2017-11-16T00:32:26.087Z,9.43
2017-11-16T00:33:26.340Z,9.39
2017-11-16T00:34:26.043Z,9.45
2017-11-16T00:35:25.755Z,9.49
2017-11-16T00:36:26.050Z,9.46
2017-11-16T00:37:25.728Z,9.4
2017-11-16T00:38:25.710Z,9.42
2017-11-16T00:39:25.966Z,9.38
2017-11-16T00:40:25.673Z,9.39
2017-11-16T00:41:26.200Z,9.38
2017-11-16T00:42:25.918Z,9.46
2017-11-16T00:43:25.894Z,9.4
2017-11-16T00:44:25.604Z,9.38
2017-11-16T00:45:25.588Z,9.38
2017-11-16T00:46:26.110Z,9.43
2017-11-16T00:47:26.094Z,9.34
2017-11-16T00:48:25.805Z,9.43
2017-11-16T00:49:25.790Z,9.32
2017-11-16T00:50:25.775Z,9.39
2017-11-16T00:51:25.752Z,9.39
2017-11-16T00:52:26.023Z,9.32
2017-11-16T00:53:25.453Z,9.3
2017-11-16T00:54:25.756Z,9.31
2017-11-16T00:55:25.417Z,9.31
2017-11-16T00:56:25.943Z,9.3
2017-11-16T00:57:25.384Z,9.28
2017-11-16T00:58:25.371Z,9.34
2017-11-16T00:59:25.892Z,9.31
2017-11-16T01:00:25.601Z,9.3
2017-11-16T01:01:25.582Z,9.34
2017-11-16T01:02:25.567Z,9.32
2017-11-16T01:03:25.823Z,9.28
2017-11-16T01:04:25.263Z,9.3
2017-11-16T01:05:25.527Z,9.34
2017-11-16T01:06:25.498Z,9.28
2017-11-16T01:07:25.752Z,9.25
2017-11-16T01:08:25.461Z,9.2
2017-11-16T01:09:25.178Z,9.21
2017-11-16T01:10:25.436Z,9.18
2017-11-16T01:11:25.413Z,9.2
2017-11-16T01:12:25.396Z,9.13
2017-11-16T01:13:25.384Z,9.13
2017-11-16T01:14:25.362Z,9.09
2017-11-16T01:15:25.352Z,9.13
2017-11-16T01:16:25.057Z,9.02
2017-11-16T01:17:25.042Z,9.01
2017-11-16T01:18:25.293Z,8.97
2017-11-16T01:19:25.008Z,8.96
2017-11-16T01:20:25.534Z,8.94
2017-11-16T01:21:24.970Z,8.91
2017-11-16T01:22:25.236Z,8.94
2017-11-16T01:23:25.205Z,8.86
2017-11-16T01:24:24.922Z,8.81
2017-11-16T01:25:25.444Z,8.88
2017-11-16T01:26:25.423Z,8.86
2017-11-16T01:27:25.146Z,8.84
2017-11-16T01:28:25.128Z,8.83
2017-11-16T01:29:25.371Z,8.91
2017-11-16T01:30:24.812Z,8.83
2017-11-16T01:31:25.068Z,8.84
2017-11-16T01:32:25.325Z,8.86
2017-11-16T01:33:25.044Z,8.84
2017-11-16T01:34:25.297Z,8.81
2017-11-16T01:35:24.730Z,8.79
2017-11-16T01:36:25.263Z,8.87
2017-11-16T01:37:25.238Z,8.93
2017-11-16T01:38:24.676Z,8.96
2017-11-16T01:39:24.931Z,8.93
2017-11-16T01:40:24.925Z,8.91
2017-11-16T01:41:25.165Z,8.94
2017-11-16T01:42:24.880Z,8.9
2017-11-16T01:43:24.590Z,8.84
2017-11-16T01:44:24.839Z,8.93
2017-11-16T01:45:25.146Z,8.91
2017-11-16T01:46:24.816Z,8.96
2017-11-16T01:47:24.789Z,8.93
2017-11-16T01:48:24.500Z,8.94
2017-11-16T01:49:25.033Z,8.97
2017-11-16T01:50:24.752Z,8.88
2017-11-16T01:51:24.450Z,8.97
2017-11-16T01:52:24.972Z,9.01
2017-11-16T01:53:24.415Z,8.97
2017-11-16T01:54:24.668Z,8.97
2017-11-16T01:55:24.651Z,9.05
2017-11-16T01:56:24.368Z,9.02
2017-11-16T01:57:25.090Z,8.93
2017-11-16T01:58:24.870Z,9.04
2017-11-16T01:59:24.309Z,8.99
2017-11-16T02:00:24.613Z,9.04
2017-11-16T02:01:24.820Z,9.06
2017-11-16T02:02:24.799Z,9.02
2017-11-16T02:03:24.513Z,9.09
2017-11-16T02:04:24.496Z,9.01
2017-11-16T02:05:24.744Z,9.06
2017-11-16T02:06:24.725Z,9.02
2017-11-16T02:07:24.446Z,9.02
2017-11-16T02:08:24.698Z,9.02
2017-11-16T02:09:24.676Z,9.02
2017-11-16T02:10:24.389Z,9.04
2017-11-16T02:11:24.368Z,9.06
2017-11-16T02:12:24.364Z,9.1
2017-11-16T02:13:24.335Z,9.13
2017-11-16T02:14:24.590Z,9.04
2017-11-16T02:15:24.299Z,9.01
2017-11-16T02:16:24.284Z,9.02
2017-11-16T02:17:24.272Z,9.04
2017-11-16T02:18:24.515Z,9.05
2017-11-16T02:19:23.968Z,9.02
2017-11-16T02:20:24.221Z,9.02
2017-11-16T02:21:24.200Z,9.04
2017-11-16T02:22:24.451Z,9.15
2017-11-16T02:23:24.165Z,9.09
2017-11-16T02:24:24.415Z,9.09
2017-11-16T02:25:24.130Z,9.09
2017-11-16T02:26:24.107Z,9.12
2017-11-16T02:27:24.092Z,9.18
2017-11-16T02:28:24.343Z,9.12
2017-11-16T02:29:24.058Z,9.12
2017-11-16T02:30:24.313Z,9.16
2017-11-16T02:31:24.293Z,9.12
2017-11-16T02:32:23.733Z,9.13
2017-11-16T02:33:23.990Z,9.18
2017-11-16T02:34:23.974Z,9.18
2017-11-16T02:35:23.962Z,9.1
2017-11-16T02:36:24.296Z,9.1
2017-11-16T02:37:24.191Z,9.16
2017-11-16T02:38:23.634Z,9.15
2017-11-16T02:39:24.163Z,9.18
2017-11-16T02:40:23.869Z,9.16
2017-11-16T02:41:24.125Z,9.16
2017-11-16T02:42:24.117Z,9.18
2017-11-16T02:43:24.095Z,9.12
2017-11-16T02:44:24.070Z,9.12
2017-11-16T02:45:23.793Z,9.12
2017-11-16T02:46:23.814Z,9.13
2017-11-16T02:47:24.029Z,9.21
2017-11-16T02:48:24.008Z,9.18
2017-11-16T02:49:23.731Z,9.13
2017-11-16T02:50:23.700Z,9.16
2017-11-16T02:51:23.682Z,9.18
2017-11-16T02:52:23.698Z,9.15
2017-11-16T02:53:23.916Z,9.18
2017-11-16T02:54:23.355Z,9.2
2017-11-16T02:55:23.604Z,9.21
2017-11-16T02:56:23.595Z,9.18
2017-11-16T02:57:23.579Z,9.18
2017-11-16T02:58:23.556Z,9.25
2017-11-16T02:59:23.568Z,9.18
2017-11-16T03:00:23.530Z,9.25
2017-11-16T03:01:23.774Z,9.27
2017-11-16T03:02:23.490Z,9.15
2017-11-16T03:03:23.740Z,9.23
2017-11-16T03:04:23.184Z,9.21
2017-11-16T03:05:23.431Z,9.18
2017-11-16T03:06:23.686Z,9.15
2017-11-16T03:07:23.670Z,9.16
2017-11-16T03:08:23.399Z,9.2
2017-11-16T03:09:23.372Z,9.16
2017-11-16T03:10:23.636Z,9.12
2017-11-16T03:11:23.606Z,9.2
2017-11-16T03:12:23.045Z,9.24
2017-11-16T03:13:23.563Z,9.27
2017-11-16T03:14:23.012Z,9.13
2017-11-16T03:15:22.991Z,9.24
2017-11-16T03:16:23.248Z,9.24
2017-11-16T03:17:23.229Z,9.25
2017-11-16T03:18:22.939Z,9.2
2017-11-16T03:19:22.925Z,9.23
2017-11-16T03:20:23.449Z,9.16
2017-11-16T03:21:23.164Z,9.16
2017-11-16T03:22:22.870Z,9.23
2017-11-16T03:23:22.856Z,9.16
2017-11-16T03:24:22.837Z,9.21
2017-11-16T03:25:23.362Z,9.15
2017-11-16T03:26:23.075Z,9.27
2017-11-16T03:27:23.323Z,9.21
2017-11-16T03:28:23.308Z,9.21
2017-11-16T03:29:23.299Z,9.12
2017-11-16T03:30:23.006Z,9.16
2017-11-16T03:31:22.719Z,9.15
2017-11-16T03:32:22.706Z,9.27
2017-11-16T03:33:22.967Z,9.28
2017-11-16T03:34:22.941Z,9.2
2017-11-16T03:35:22.646Z,9.16
2017-11-16T03:36:22.629Z,9.3
2017-11-16T03:37:22.610Z,9.24
2017-11-16T03:38:22.861Z,9.21
2017-11-16T03:39:22.844Z,9.27
2017-11-16T03:40:22.830Z,9.28
2017-11-16T03:41:23.083Z,9.18
2017-11-16T03:42:22.580Z,9.25
2017-11-16T03:43:22.785Z,9.13
2017-11-16T03:44:23.041Z,9.24
2017-11-16T03:45:23.020Z,9.21
2017-11-16T03:46:22.724Z,9.25
2017-11-16T03:47:22.727Z,9.25
2017-11-16T03:48:22.426Z,9.23
2017-11-16T03:49:22.675Z,9.25
2017-11-16T03:50:22.658Z,9.23
2017-11-16T03:51:22.371Z,9.24
2017-11-16T03:52:22.354Z,9.23
2017-11-16T03:53:22.611Z,9.2
2017-11-16T03:54:22.853Z,9.28
2017-11-16T03:55:22.595Z,9.28
2017-11-16T03:56:22.845Z,9.24
2017-11-16T03:57:23.010Z,9.18
2017-11-16T03:58:22.527Z,9.21
2017-11-16T03:59:22.238Z,9.28
2017-11-16T04:00:22.496Z,9.18
2017-11-16T04:01:22.483Z,9.24
2017-11-16T04:02:22.721Z,9.21
2017-11-16T04:03:22.431Z,9.25
2017-11-16T04:04:22.414Z,9.21
2017-11-16T04:05:22.676Z,9.16
2017-11-16T04:06:22.381Z,9.24
2017-11-16T04:07:22.670Z,9.23
2017-11-16T04:08:22.631Z,9.27
2017-11-16T04:09:22.621Z,9.15
2017-11-16T04:10:22.318Z,9.12
2017-11-16T04:11:22.562Z,9.1
2017-11-16T04:12:22.290Z,9.09
2017-11-16T04:13:22.260Z,9.1
2017-11-16T04:14:22.522Z,9.01
2017-11-16T04:15:22.499Z,9.05
2017-11-16T04:16:22.476Z,9.04
2017-11-16T04:17:22.189Z,8.99
2017-11-16T04:18:22.467Z,9.01
2017-11-16T04:19:22.434Z,8.93
2017-11-16T04:20:21.871Z,9.06
2017-11-16T04:21:21.859Z,9.01
2017-11-16T04:22:22.383Z,9.02
2017-11-16T04:23:22.364Z,9.06
2017-11-16T04:24:22.073Z,9.05
2017-11-16T04:25:22.322Z,8.93
2017-11-16T04:26:22.317Z,8.91
2017-11-16T04:27:22.306Z,8.88
2017-11-16T04:28:22.020Z,9.01
2017-11-16T04:29:21.993Z,8.99
2017-11-16T04:30:21.968Z,8.94
2017-11-16T04:31:21.955Z,8.93
2017-11-16T04:32:21.670Z,8.91
2017-11-16T04:33:22.191Z,8.9
2017-11-16T04:34:21.902Z,8.91
2017-11-16T04:35:21.881Z,8.88
2017-11-16T04:36:21.600Z,8.91
2017-11-16T04:37:21.844Z,8.94
2017-11-16T04:38:21.831Z,8.91
2017-11-16T04:39:21.537Z,8.9
2017-11-16T04:40:22.062Z,8.88
2017-11-16T04:41:22.046Z,8.99
2017-11-16T04:42:21.488Z,8.94
2017-11-16T04:43:21.740Z,8.94
2017-11-16T04:44:21.450Z,8.91
2017-11-16T04:45:21.436Z,8.93
2017-11-16T04:46:21.958Z,8.94
2017-11-16T04:47:21.676Z,8.87
2017-11-16T04:48:21.653Z,8.88
2017-11-16T04:49:21.454Z,8.86
2017-11-16T04:50:21.909Z,8.93
2017-11-16T04:51:21.876Z,8.91
2017-11-16T04:52:21.323Z,8.91
2017-11-16T04:53:21.565Z,8.97
2017-11-16T04:54:21.822Z,8.94
2017-11-16T04:55:21.533Z,8.9
2017-11-16T04:56:21.781Z,8.84
2017-11-16T04:57:21.501Z,8.9
2017-11-16T04:58:21.776Z,8.94
2017-11-16T04:59:21.542Z,8.9
2017-11-16T05:00:21.440Z,8.91
2017-11-16T05:01:21.422Z,8.9
2017-11-16T05:02:21.405Z,8.91
2017-11-16T05:03:21.655Z,8.88
2017-11-16T05:04:21.372Z,8.93
2017-11-16T05:05:21.357Z,8.91
2017-11-16T05:06:21.331Z,8.96
2017-11-16T05:07:21.312Z,8.91
2017-11-16T05:08:21.297Z,8.88
2017-11-16T05:09:21.279Z,8.93
2017-11-16T05:10:21.261Z,8.93
2017-11-16T05:11:21.243Z,8.83
2017-11-16T05:12:21.495Z,8.91
2017-11-16T05:13:21.513Z,8.94
2017-11-16T05:14:21.201Z,8.97
2017-11-16T05:15:21.177Z,8.87
2017-11-16T05:16:21.153Z,8.94
2017-11-16T05:17:21.145Z,8.88
2017-11-16T05:18:21.121Z,8.86
2017-11-16T05:19:20.832Z,8.94
2017-11-16T05:20:20.813Z,8.96
2017-11-16T05:21:21.067Z,8.84
2017-11-16T05:22:20.780Z,8.94
2017-11-16T05:23:21.032Z,8.86
2017-11-16T05:24:21.283Z,8.9
2017-11-16T05:25:20.994Z,8.91
2017-11-16T05:26:20.717Z,8.86
2017-11-16T05:27:20.961Z,8.93
2017-11-16T05:28:20.671Z,8.97
2017-11-16T05:29:20.651Z,8.91
2017-11-16T05:30:20.639Z,8.96
2017-11-16T05:31:20.617Z,8.84
2017-11-16T05:32:20.870Z,8.93
2017-11-16T05:33:20.582Z,8.9
2017-11-16T05:34:20.827Z,8.93
2017-11-16T05:35:21.135Z,8.86
2017-11-16T05:36:21.065Z,8.83
2017-11-16T05:37:20.510Z,8.9
2017-11-16T05:38:20.762Z,8.86
2017-11-16T05:39:20.472Z,8.91
2017-11-16T05:40:20.459Z,8.97
2017-11-16T05:41:20.981Z,8.87
2017-11-16T05:42:20.961Z,8.94
2017-11-16T05:43:20.677Z,8.88
2017-11-16T05:44:20.656Z,8.88
2017-11-16T05:45:20.967Z,8.97
2017-11-16T05:46:20.895Z,8.86
2017-11-16T05:47:20.870Z,8.9
2017-11-16T05:48:20.581Z,8.78
2017-11-16T05:49:20.834Z,8.9
2017-11-16T05:50:20.826Z,8.9
2017-11-16T05:51:20.800Z,8.94
2017-11-16T05:52:20.518Z,8.93
2017-11-16T05:53:20.527Z,8.87
2017-11-16T05:54:20.737Z,8.96
2017-11-16T05:55:20.519Z,8.93
2017-11-16T05:56:20.448Z,8.94
2017-11-16T05:57:20.384Z,8.9
2017-11-16T05:58:20.137Z,8.91
2017-11-16T05:59:20.388Z,8.9
2017-11-16T06:00:20.644Z,8.91
2017-11-16T06:01:20.085Z,8.94
2017-11-16T06:02:20.065Z,8.91
2017-11-16T06:03:20.586Z,8.96
2017-11-16T06:04:20.569Z,8.93
2017-11-16T06:05:20.286Z,8.91
2017-11-16T06:06:20.542Z,8.93
2017-11-16T06:07:20.243Z,8.96
2017-11-16T06:08:19.968Z,8.96
2017-11-16T06:09:20.486Z,8.93
2017-11-16T06:10:20.191Z,8.93
2017-11-16T06:11:19.904Z,8.91
2017-11-16T06:12:20.159Z,8.86
2017-11-16T06:13:20.145Z,8.91
2017-11-16T06:14:20.124Z,8.88
2017-11-16T06:15:20.108Z,8.93
2017-11-16T06:16:20.359Z,8.87
2017-11-16T06:17:19.804Z,8.96
2017-11-16T06:18:20.057Z,8.93
2017-11-16T06:19:19.766Z,8.94
2017-11-16T06:20:20.296Z,8.91
2017-11-16T06:21:20.285Z,8.97
2017-11-16T06:22:19.710Z,8.96
2017-11-16T06:23:19.698Z,8.93
2017-11-16T06:24:19.946Z,8.97
2017-11-16T06:25:20.199Z,8.79
2017-11-16T06:26:20.180Z,8.81
2017-11-16T06:27:19.898Z,8.83
2017-11-16T06:28:19.890Z,8.9
2017-11-16T06:29:20.128Z,8.86
2017-11-16T06:30:19.582Z,8.81
2017-11-16T06:31:20.104Z,8.79
2017-11-16T06:32:19.811Z,8.83
2017-11-16T06:33:20.062Z,8.84
2017-11-16T06:34:20.054Z,8.87
2017-11-16T06:35:20.022Z,8.84
2017-11-16T06:36:20.063Z,8.81
2017-11-16T06:37:19.719Z,8.87
2017-11-16T06:38:19.702Z,8.78
2017-11-16T06:39:19.956Z,8.75
2017-11-16T06:40:19.666Z,8.84
2017-11-16T06:41:19.646Z,8.83
2017-11-16T06:42:19.629Z,8.88
2017-11-16T06:43:19.875Z,8.87
2017-11-16T06:44:19.598Z,8.88
2017-11-16T06:45:19.307Z,8.79
2017-11-16T06:46:19.878Z,8.84
2017-11-16T06:47:19.540Z,8.83
2017-11-16T06:48:19.523Z,8.91
2017-11-16T06:49:19.517Z,8.91
2017-11-16T06:50:19.764Z,8.79
2017-11-16T06:51:19.467Z,8.84
2017-11-16T06:52:19.721Z,8.86
2017-11-16T06:53:19.163Z,8.79
2017-11-16T06:54:19.419Z,8.87
2017-11-16T06:55:19.670Z,8.86
2017-11-16T06:56:19.380Z,8.87
2017-11-16T06:57:19.097Z,8.9
2017-11-16T06:58:19.638Z,8.84
2017-11-16T06:59:19.080Z,8.81
2017-11-16T07:00:19.582Z,8.79
2017-11-16T07:01:19.568Z,8.84
2017-11-16T07:02:19.006Z,8.87
2017-11-16T07:03:19.538Z,8.86
2017-11-16T07:04:19.238Z,8.79
2017-11-16T07:05:19.223Z,8.81
2017-11-16T07:06:19.484Z,8.87
2017-11-16T07:07:19.192Z,8.88
2017-11-16T07:08:19.439Z,8.87
2017-11-16T07:09:19.434Z,8.87
2017-11-16T07:10:19.136Z,8.78
2017-11-16T07:11:18.846Z,8.88
2017-11-16T07:12:19.096Z,8.81
2017-11-16T07:13:18.812Z,8.83
2017-11-16T07:14:19.065Z,8.83
2017-11-16T07:15:19.062Z,8.81
2017-11-16T07:16:19.304Z,8.81
2017-11-16T07:17:19.280Z,8.84
2017-11-16T07:18:19.265Z,8.83
2017-11-16T07:19:18.971Z,8.9
2017-11-16T07:20:18.689Z,8.84
2017-11-16T07:21:19.211Z,8.9
2017-11-16T07:22:18.705Z,8.84
2017-11-16T07:23:19.174Z,8.86
2017-11-16T07:24:18.883Z,8.9
2017-11-16T07:25:18.868Z,8.81
2017-11-16T07:26:19.116Z,8.94
2017-11-16T07:27:18.835Z,8.81
2017-11-16T07:28:19.081Z,8.91
2017-11-16T07:29:18.530Z,8.86
2017-11-16T07:30:19.091Z,8.87
2017-11-16T07:31:18.757Z,8.78
2017-11-16T07:32:18.471Z,8.87
2017-11-16T07:33:18.456Z,8.84
2017-11-16T07:34:18.708Z,8.91
2017-11-16T07:35:18.423Z,8.78
2017-11-16T07:36:18.674Z,8.88
2017-11-16T07:37:18.986Z,8.83
2017-11-16T07:38:18.920Z,8.84
2017-11-16T07:39:18.896Z,8.86
2017-11-16T07:40:18.880Z,8.86
2017-11-16T07:41:18.584Z,8.86
2017-11-16T07:42:18.565Z,8.81
2017-11-16T07:43:18.821Z,8.83
2017-11-16T07:44:18.537Z,8.84
2017-11-16T07:45:18.784Z,8.86
2017-11-16T07:46:18.771Z,8.79
2017-11-16T07:47:18.480Z,8.88
2017-11-16T07:48:18.189Z,8.79
2017-11-16T07:49:18.722Z,8.88
2017-11-16T07:50:18.428Z,8.93
2017-11-16T07:51:18.681Z,8.93
2017-11-16T07:52:18.660Z,8.94
2017-11-16T07:53:18.384Z,8.91
2017-11-16T07:54:18.084Z,8.84
2017-11-16T07:55:18.336Z,8.94
2017-11-16T07:56:18.335Z,8.94
2017-11-16T07:57:18.783Z,8.91
2017-11-16T07:58:18.556Z,8.94
2017-11-16T07:59:18.264Z,8.91
2017-11-16T08:00:18.519Z,8.94
2017-11-16T08:01:18.509Z,8.9
2017-11-16T08:02:17.948Z,8.97
2017-11-16T08:03:18.198Z,8.97
2017-11-16T08:04:18.459Z,8.97
2017-11-16T08:05:18.201Z,8.99
2017-11-16T08:06:18.148Z,8.94
2017-11-16T08:07:17.862Z,8.94
2017-11-16T08:08:18.380Z,8.94
2017-11-16T08:09:18.363Z,8.99
2017-11-16T08:10:18.082Z,8.96
2017-11-16T08:11:17.787Z,9.09
2017-11-16T08:12:18.042Z,9.01
2017-11-16T08:13:18.023Z,8.99
2017-11-16T08:14:17.738Z,9.01
2017-11-16T08:15:18.292Z,8.93
2017-11-16T08:16:17.977Z,9.02
2017-11-16T08:17:18.217Z,9.04
2017-11-16T08:18:17.933Z,9.05
2017-11-16T08:19:17.643Z,9.12
2017-11-16T08:20:17.899Z,9.06
2017-11-16T08:21:17.876Z,9.05
2017-11-16T08:22:17.860Z,9.02
2017-11-16T08:23:17.848Z,9.02
2017-11-16T08:24:18.098Z,9.04
2017-11-16T08:25:17.808Z,8.94
2017-11-16T08:26:18.067Z,9.05
2017-11-16T08:27:17.773Z,9.01
2017-11-16T08:28:18.033Z,8.91
2017-11-16T08:29:17.742Z,8.93
2017-11-16T08:30:17.719Z,8.94
2017-11-16T08:31:17.700Z,9.01
2017-11-16T08:32:17.416Z,9.01
2017-11-16T08:33:17.401Z,8.97
2017-11-16T08:34:17.378Z,8.99
2017-11-16T08:35:17.900Z,9.01
2017-11-16T08:36:17.898Z,9.04
2017-11-16T08:37:17.593Z,9.04
2017-11-16T08:38:17.852Z,9.12
2017-11-16T08:39:17.569Z,9.04
2017-11-16T08:40:17.549Z,9.06
2017-11-16T08:41:17.534Z,9.01
2017-11-16T08:42:17.511Z,9.13
2017-11-16T08:43:17.539Z,9.06
2017-11-16T08:44:17.486Z,9.15
2017-11-16T08:45:17.721Z,9.12
2017-11-16T08:46:17.717Z,9.06
2017-11-16T08:47:17.420Z,9.16
2017-11-16T08:48:17.675Z,9.18
2017-11-16T08:49:17.389Z,9.09
2017-11-16T08:50:17.382Z,9.06
2017-11-16T08:51:17.348Z,9.09
2017-11-16T08:52:17.332Z,9.06
2017-11-16T08:53:17.311Z,9.04
2017-11-16T08:54:17.291Z,9.02
2017-11-16T08:55:17.005Z,9.02
2017-11-16T08:56:16.994Z,9.09
2017-11-16T08:57:17.524Z,9.09
2017-11-16T08:58:17.230Z,9.01
2017-11-16T08:59:17.480Z,9.01
2017-11-16T09:00:17.467Z,8.93
2017-11-16T09:01:17.446Z,9.01
2017-11-16T09:02:17.422Z,9.01
2017-11-16T09:03:17.138Z,9.05
2017-11-16T09:04:17.117Z,9.09
2017-11-16T09:05:17.107Z,9.05
2017-11-16T09:06:17.094Z,9.18
2017-11-16T09:07:17.340Z,9.12
2017-11-16T09:08:16.779Z,9.1
2017-11-16T09:09:17.035Z,9.15
2017-11-16T09:10:17.281Z,9.15
2017-11-16T09:11:16.729Z,9.18
2017-11-16T09:12:16.710Z,9.18
2017-11-16T09:13:16.692Z,9.18
2017-11-16T09:14:16.676Z,9.21
2017-11-16T09:15:17.206Z,9.15
2017-11-16T09:16:16.909Z,9.18
2017-11-16T09:17:16.890Z,9.27
2017-11-16T09:18:16.603Z,9.2
2017-11-16T09:19:17.127Z,9.16
2017-11-16T09:20:16.847Z,9.21
2017-11-16T09:21:16.820Z,9.15
2017-11-16T09:22:16.809Z,9.15
2017-11-16T09:23:16.793Z,9.2
2017-11-16T09:24:16.785Z,9.15
2017-11-16T09:25:17.028Z,9.23
2017-11-16T09:26:17.010Z,9.3
2017-11-16T09:27:16.721Z,9.28
2017-11-16T09:28:16.972Z,9.3
2017-11-16T09:29:16.678Z,9.27
2017-11-16T09:30:16.701Z,9.31
2017-11-16T09:31:16.650Z,9.42
2017-11-16T09:32:16.945Z,9.43
2017-11-16T09:33:16.917Z,9.4
2017-11-16T09:34:16.875Z,9.34
2017-11-16T09:35:16.311Z,9.43
2017-11-16T09:36:16.831Z,9.46
2017-11-16T09:37:16.538Z,9.56
2017-11-16T09:38:16.528Z,9.61
2017-11-16T09:39:16.772Z,9.56
2017-11-16T09:40:16.521Z,9.57
2017-11-16T09:41:16.476Z,9.6
2017-11-16T09:42:16.730Z,9.48
2017-11-16T09:43:16.437Z,9.53
2017-11-16T09:44:16.744Z,9.56
2017-11-16T09:45:16.404Z,9.56
2017-11-16T09:46:16.120Z,9.57
2017-11-16T09:47:16.640Z,9.6
2017-11-16T09:48:16.079Z,9.56
2017-11-16T09:49:16.070Z,9.57
2017-11-16T09:50:16.048Z,9.56
2017-11-16T09:51:16.311Z,9.53
2017-11-16T09:52:16.300Z,9.56
2017-11-16T09:53:15.999Z,9.64
2017-11-16T09:54:16.029Z,9.56
2017-11-16T09:55:15.970Z,9.58
2017-11-16T09:56:16.220Z,9.64
2017-11-16T09:57:16.219Z,9.63
2017-11-16T09:58:15.916Z,9.66
2017-11-16T09:59:16.165Z,9.61
2017-11-16T10:00:16.410Z,9.61
2017-11-16T10:01:16.131Z,9.6
2017-11-16T10:02:16.394Z,9.66
2017-11-16T10:03:16.100Z,9.73
2017-11-16T10:04:16.006Z,9.75
2017-11-16T10:05:16.060Z,9.73
2017-11-16T10:06:16.046Z,9.78
2017-11-16T10:07:16.033Z,9.85
2017-11-16T10:08:16.009Z,9.73
2017-11-16T10:09:16.301Z,9.71
2017-11-16T10:10:16.262Z,9.61
2017-11-16T10:11:15.698Z,9.66
2017-11-16T10:12:15.947Z,9.71
2017-11-16T10:13:15.932Z,9.6
2017-11-16T10:14:15.643Z,9.7
2017-11-16T10:15:15.899Z,9.75
2017-11-16T10:16:15.878Z,9.75
2017-11-16T10:17:15.856Z,9.73
2017-11-16T10:18:15.854Z,9.81
2017-11-16T10:19:16.106Z,9.76
2017-11-16T10:20:15.802Z,9.91
2017-11-16T10:21:15.519Z,10
2017-11-16T10:22:15.778Z,10
2017-11-16T10:23:16.024Z,10.04
2017-11-16T10:24:15.470Z,10.1
2017-11-16T10:25:15.998Z,10.19
2017-11-16T10:26:15.705Z,10.22
2017-11-16T10:27:15.686Z,10.24
2017-11-16T10:28:15.673Z,10.26
2017-11-16T10:29:15.651Z,10.24
2017-11-16T10:30:15.849Z,10.19
2017-11-16T10:31:15.621Z,10.26
2017-11-16T10:32:15.877Z,10.25
2017-11-16T10:33:15.865Z,10.28
2017-11-16T10:34:15.573Z,10.28
2017-11-16T10:35:15.848Z,10.32
2017-11-16T10:36:15.547Z,10.24
2017-11-16T10:37:15.800Z,10.32
2017-11-16T10:38:15.773Z,10.25
2017-11-16T10:39:15.491Z,10.3
2017-11-16T10:40:15.536Z,10.17
2017-11-16T10:41:15.192Z,10.17
2017-11-16T10:42:15.710Z,10.21
2017-11-16T10:43:15.432Z,10.19
2017-11-16T10:44:15.422Z,10.19
2017-11-16T10:45:15.138Z,10.22
2017-11-16T10:46:15.108Z,10.19
2017-11-16T10:47:15.101Z,10.3
2017-11-16T10:48:15.616Z,10.3
2017-11-16T10:49:15.344Z,10.32
2017-11-16T10:50:15.311Z,10.33
2017-11-16T10:51:15.564Z,10.33
2017-11-16T10:52:15.278Z,10.26
2017-11-16T10:53:15.263Z,10.33
2017-11-16T10:54:15.516Z,10.36
2017-11-16T10:55:15.010Z,10.32
2017-11-16T10:56:14.946Z,10.4
2017-11-16T10:57:14.933Z,10.53
2017-11-16T10:58:14.928Z,10.46
2017-11-16T10:59:14.898Z,10.56
2017-11-16T11:00:15.205Z,10.56
2017-11-16T11:01:14.865Z,10.51
2017-11-16T11:02:15.116Z,10.47
2017-11-16T11:03:15.365Z,10.52
2017-11-16T11:04:15.361Z,10.47
2017-11-16T11:05:15.075Z,10.53
2017-11-16T11:06:15.054Z,10.53
2017-11-16T11:07:15.037Z,10.59
2017-11-16T11:08:15.031Z,10.53
2017-11-16T11:09:15.011Z,10.53
2017-11-16T11:10:14.775Z,10.59
2017-11-16T11:11:14.700Z,10.55
2017-11-16T11:12:15.232Z,10.56
2017-11-16T11:13:14.942Z,10.55
2017-11-16T11:14:14.650Z,10.58
2017-11-16T11:15:14.686Z,10.58
2017-11-16T11:16:14.892Z,10.56
2017-11-16T11:17:14.882Z,10.51
2017-11-16T11:18:15.128Z,10.52
2017-11-16T11:19:14.839Z,10.4
2017-11-16T11:20:14.862Z,10.43
2017-11-16T11:21:15.108Z,10.43
2017-11-16T11:22:14.801Z,10.4
2017-11-16T11:23:15.042Z,10.36
2017-11-16T11:24:14.491Z,10.4
2017-11-16T11:25:14.473Z,10.28
2017-11-16T11:26:14.727Z,10.3
2017-11-16T11:27:14.709Z,10.28
2017-11-16T11:28:14.432Z,10.34
2017-11-16T11:29:14.949Z,10.3
2017-11-16T11:30:14.397Z,10.22
2017-11-16T11:31:14.658Z,10.24
2017-11-16T11:32:14.902Z,10.37
2017-11-16T11:33:14.346Z,10.39
2017-11-16T11:34:14.605Z,10.4
2017-11-16T11:35:14.316Z,10.33
2017-11-16T11:36:14.297Z,10.39
2017-11-16T11:37:14.823Z,10.42
2017-11-16T11:38:14.531Z,10.34
2017-11-16T11:39:14.521Z,10.33
2017-11-16T11:40:14.234Z,10.42
2017-11-16T11:41:14.536Z,10.36
2017-11-16T11:42:14.197Z,10.39
2017-11-16T11:43:14.446Z,10.42
2017-11-16T11:44:14.432Z,10.47
2017-11-16T11:45:14.422Z,10.34
2017-11-16T11:46:14.670Z,10.44
2017-11-16T11:47:14.650Z,10.46
2017-11-16T11:48:14.641Z,10.46
2017-11-16T11:49:14.353Z,10.39
2017-11-16T11:50:14.341Z,10.4
2017-11-16T11:51:14.101Z,10.39
2017-11-16T11:52:14.028Z,10.53
2017-11-16T11:53:14.554Z,10.46
2017-11-16T11:54:14.267Z,10.46
2017-11-16T11:55:14.258Z,10.55
2017-11-16T11:56:14.290Z,10.56
2017-11-16T11:57:14.489Z,10.68
2017-11-16T11:58:14.673Z,10.68
2017-11-16T11:59:14.457Z,10.65
2017-11-16T12:00:14.455Z,10.74
2017-11-16T12:01:14.153Z,10.65
2017-11-16T12:02:13.864Z,10.63
2017-11-16T12:03:14.391Z,10.53
2017-11-16T12:04:14.106Z,10.53
2017-11-16T12:05:14.085Z,10.53
2017-11-16T12:06:14.071Z,10.53
2017-11-16T12:07:14.326Z,10.47
2017-11-16T12:08:14.330Z,10.46
2017-11-16T12:09:14.307Z,10.44
2017-11-16T12:10:14.003Z,10.56
2017-11-16T12:11:13.985Z,10.65
2017-11-16T12:12:13.975Z,10.74
2017-11-16T12:13:13.687Z,10.56
2017-11-16T12:14:13.943Z,10.53
2017-11-16T12:15:13.654Z,10.63
2017-11-16T12:16:13.638Z,10.6
2017-11-16T12:17:13.894Z,10.62
2017-11-16T12:18:14.173Z,10.73
2017-11-16T12:19:14.123Z,10.74
2017-11-16T12:20:13.581Z,10.7
2017-11-16T12:21:14.096Z,10.68
2017-11-16T12:22:13.542Z,10.66
2017-11-16T12:23:14.066Z,10.68
2017-11-16T12:24:13.508Z,10.55
2017-11-16T12:25:13.490Z,10.53
2017-11-16T12:26:14.029Z,10.6
2017-11-16T12:27:14.002Z,10.55
2017-11-16T12:28:13.711Z,10.55
2017-11-16T12:29:13.979Z,10.52
2017-11-16T12:30:13.678Z,10.52
2017-11-16T12:31:13.394Z,10.47
2017-11-16T12:32:13.916Z,10.53
2017-11-16T12:33:13.901Z,10.55
2017-11-16T12:34:13.616Z,10.51
2017-11-16T12:35:13.609Z,10.52
2017-11-16T12:36:13.846Z,10.4
2017-11-16T12:37:13.839Z,10.39
2017-11-16T12:38:13.557Z,10.44
2017-11-16T12:39:13.540Z,10.52
2017-11-16T12:40:13.246Z,10.52
2017-11-16T12:41:13.514Z,10.51
2017-11-16T12:42:13.364Z,10.53
2017-11-16T12:43:13.473Z,10.4
2017-11-16T12:44:13.449Z,10.44
2017-11-16T12:45:13.434Z,10.44
2017-11-16T12:46:13.153Z,10.39
2017-11-16T12:47:13.450Z,10.37
2017-11-16T12:48:13.652Z,10.43
2017-11-16T12:49:13.682Z,10.32
2017-11-16T12:50:13.633Z,10.42
2017-11-16T12:51:13.607Z,10.32
2017-11-16T12:52:13.049Z,10.33
2017-11-16T12:53:13.304Z,10.37
2017-11-16T12:54:13.289Z,10.4
2017-11-16T12:55:13.271Z,10.36
2017-11-16T12:56:13.250Z,10.42
2017-11-16T12:57:13.244Z,10.39
2017-11-16T12:58:13.231Z,10.47
2017-11-16T12:59:13.475Z,10.43
2017-11-16T13:00:13.190Z,10.39
2017-11-16T13:01:13.438Z,10.51
2017-11-16T13:02:13.155Z,10.39
2017-11-16T13:03:13.402Z,10.47
2017-11-16T13:04:12.854Z,10.51
2017-11-16T13:05:13.370Z,10.53
2017-11-16T13:06:13.373Z,10.55
2017-11-16T13:07:13.343Z,10.66
2017-11-16T13:08:12.788Z,10.7
2017-11-16T13:09:13.044Z,10.59
2017-11-16T13:10:13.297Z,10.51
2017-11-16T13:11:13.002Z,10.6
2017-11-16T13:12:13.260Z,10.56
2017-11-16T13:13:12.975Z,10.55
2017-11-16T13:14:12.973Z,10.51
2017-11-16T13:15:12.672Z,10.56